createdAt,value
2019-04-20T00:01:50.490Z,6.35
2019-04-20T00:04:24.723Z,5.80
2019-04-20T00:06:54.753Z,5.20
2019-04-20T00:09:29.296Z,6.22
2019-04-20T00:12:07.215Z,5.35
2019-04-20T00:14:32.096Z,5.20
2019-04-20T00:17:01.111Z,5.30
2019-04-20T00:19:37.499Z,4.92
2019-04-20T00:22:12.308Z,4.97
2019-04-20T00:24:45.420Z,5.17
2019-04-20T00:27:37.374Z,5.15
2019-04-20T00:30:04.426Z,6.45
2019-04-20T00:32:41.334Z,6.10
2019-04-20T00:34:55.872Z,6.83
2019-04-20T00:37:27.661Z,6.65
2019-04-20T00:39:59.473Z,6.83
2019-04-20T00:42:33.881Z,6.70
2019-04-20T00:45:10.709Z,5.90
2019-04-20T00:47:45.795Z,5.62
2019-04-20T00:50:25.873Z,6.30
2019-04-20T00:52:54.373Z,6.67
2019-04-20T00:55:12.823Z,7.15
2019-04-20T00:57:50.035Z,5.97
2019-04-20T01:00:32.797Z,6.60
2019-04-20T01:05:35.404Z,6.90
2019-04-20T01:07:56.303Z,7.80
2019-04-20T01:10:23.649Z,7.00
2019-04-20T01:13:01.196Z,6.35
2019-04-20T01:15:38.764Z,7.20
2019-04-20T01:17:59.155Z,6.92
2019-04-20T01:20:28.552Z,7.17
2019-04-20T01:23:04.810Z,6.92
2019-04-20T01:25:33.823Z,6.53
2019-04-20T01:28:13.273Z,6.65
2019-04-20T01:30:39.764Z,6.53
2019-04-20T01:33:16.407Z,6.70
2019-04-20T01:35:51.325Z,6.77
2019-04-20T01:38:21.256Z,6.62
2019-04-20T01:40:44.422Z,6.65
2019-04-20T01:43:14.226Z,7.08
2019-04-20T01:45:45.474Z,6.83
2019-04-20T01:48:22.928Z,7.37
2019-04-20T01:50:59.427Z,6.92
2019-04-20T01:53:44.372Z,7.10
2019-04-20T01:56:17.022Z,7.53
2019-04-20T01:58:59.651Z,7.87
2019-04-20T02:01:23.909Z,7.12
2019-04-20T02:03:58.707Z,7.12
2019-04-20T02:06:39.275Z,7.35
2019-04-20T02:09:06.470Z,7.12
2019-04-20T02:11:40.115Z,7.20
2019-04-20T02:14:09.616Z,7.65
2019-04-20T02:16:44.032Z,7.50
2019-04-20T02:19:29.065Z,7.62
2019-04-20T02:21:55.719Z,7.65
2019-04-20T02:24:17.722Z,7.78
2019-04-20T02:26:50.046Z,8.13
2019-04-20T02:29:44.324Z,8.18
2019-04-20T02:37:43.714Z,8.03
2019-04-20T02:40:12.891Z,8.15
2019-04-20T02:47:54.960Z,8.08
2019-04-20T02:50:05.594Z,8.55
2019-04-20T03:00:12.486Z,8.38
2019-04-20T03:02:36.234Z,8.30
2019-04-20T03:05:06.718Z,8.28
2019-04-20T03:07:47.971Z,8.75
2019-04-20T03:10:17.756Z,7.73
2019-04-20T03:12:50.342Z,8.58
2019-04-20T03:15:27.581Z,7.87
2019-04-20T03:17:58.875Z,8.70
2019-04-20T03:20:39.012Z,7.95
2019-04-20T03:23:23.528Z,8.78
2019-04-20T03:25:58.504Z,8.28
2019-04-20T03:28:25.943Z,7.87
2019-04-20T03:31:33.350Z,8.33
2019-04-20T03:33:53.757Z,8.35
2019-04-20T03:36:11.905Z,8.20
2019-04-20T03:38:41.441Z,7.83
2019-04-20T03:41:09.748Z,8.10
2019-04-20T03:43:29.027Z,8.50
2019-04-20T03:46:05.566Z,7.85
2019-04-20T03:48:50.757Z,9.00
2019-04-20T03:51:34.407Z,8.75
2019-04-20T03:54:08.577Z,8.55
2019-04-20T03:56:49.456Z,8.88
2019-04-20T03:59:39.591Z,9.28
2019-04-20T04:02:22.259Z,9.28
2019-04-20T04:05:04.328Z,9.73
2019-04-20T04:07:26.798Z,8.68
2019-04-20T04:10:10.962Z,8.85
2019-04-20T04:13:00.958Z,9.03
2019-04-20T04:15:31.701Z,8.83
2019-04-20T04:18:07.571Z,8.85
2019-04-20T04:20:45.501Z,8.93
2019-04-20T04:23:24.956Z,9.10
2019-04-20T04:26:00.683Z,8.83
2019-04-20T04:28:28.731Z,9.10
2019-04-20T04:31:05.158Z,7.95
2019-04-20T04:36:05.888Z,8.65
2019-04-20T04:38:43.456Z,9.73
2019-04-20T04:41:21.458Z,9.13
2019-04-20T04:43:44.104Z,8.98
2019-04-20T04:45:59.555Z,9.95
2019-04-20T04:48:35.013Z,9.28
2019-04-20T04:51:10.404Z,9.28
2019-04-20T04:53:44.362Z,9.95
2019-04-20T04:56:11.614Z,10.00
2019-04-20T04:58:40.476Z,10.18
2019-04-20T05:01:25.925Z,10.43
2019-04-20T05:06:59.486Z,9.93
2019-04-20T05:09:19.372Z,10.10
2019-04-20T05:11:56.904Z,10.53
2019-04-20T05:14:26.208Z,10.43
2019-04-20T05:17:25.501Z,11.20
2019-04-20T05:20:04.324Z,10.88
2019-04-20T05:23:11.549Z,10.60
2019-04-20T05:25:52.287Z,11.28
2019-04-20T05:28:20.728Z,11.05
2019-04-20T05:30:48.716Z,11.30
2019-04-20T05:33:25.621Z,11.55
2019-04-20T05:36:05.595Z,11.40
2019-04-20T05:41:11.493Z,12.10
2019-04-20T05:43:48.433Z,11.22
2019-04-20T05:46:26.403Z,11.30
2019-04-20T05:48:57.888Z,12.20
2019-04-20T05:51:29.774Z,11.55
2019-04-20T05:54:03.624Z,12.33
2019-04-20T05:56:35.332Z,12.75
2019-04-20T05:59:00.855Z,13.28
2019-04-20T06:01:39.700Z,13.65
2019-04-20T06:04:01.618Z,13.35
2019-04-20T06:06:41.537Z,13.57
2019-04-20T06:11:55.711Z,14.47
2019-04-20T06:14:18.674Z,14.68
2019-04-20T06:17:02.917Z,14.23
2019-04-20T06:19:38.414Z,14.18
2019-04-20T06:22:10.262Z,13.25
2019-04-20T06:25:04.580Z,13.72
2019-04-20T06:27:14.647Z,13.65
2019-04-20T06:29:45.732Z,15.53
2019-04-20T06:32:28.645Z,14.83
2019-04-20T06:34:51.806Z,15.37
2019-04-20T06:37:24.423Z,16.03
2019-04-20T06:40:08.344Z,15.33
2019-04-20T06:42:21.947Z,15.10
2019-04-20T06:44:57.646Z,15.15
2019-04-20T06:47:31.048Z,16.15
2019-04-20T06:50:01.773Z,16.02
2019-04-20T06:52:34.432Z,15.00
2019-04-20T06:55:08.732Z,15.48
2019-04-20T06:58:04.315Z,15.88
2019-04-20T07:00:34.695Z,15.20
2019-04-20T07:02:56.420Z,15.48
2019-04-20T07:05:41.791Z,15.38
2019-04-20T07:08:06.994Z,15.78
2019-04-20T07:10:32.431Z,15.40
2019-04-20T07:12:55.629Z,15.60
2019-04-20T07:15:28.710Z,15.72
2019-04-20T07:20:54.006Z,15.05
2019-04-20T07:23:21.384Z,15.63
2019-04-20T07:28:19.728Z,15.40
2019-04-20T07:30:45.216Z,15.78
2019-04-20T07:33:25.700Z,16.12
2019-04-20T07:35:49.033Z,15.40
2019-04-20T07:38:31.291Z,16.05
2019-04-20T07:40:50.617Z,15.68
2019-04-20T07:43:25.537Z,14.53
2019-04-20T07:45:55.916Z,14.13
2019-04-20T07:48:27.911Z,13.90
2019-04-20T07:50:53.405Z,14.00
2019-04-20T07:53:29.914Z,12.98
2019-04-20T07:56:04.686Z,13.25
2019-04-20T07:58:25.055Z,12.85
2019-04-20T08:01:30.134Z,13.10
2019-04-20T08:04:17.426Z,13.15
2019-04-20T08:06:37.906Z,13.45
2019-04-20T08:11:59.688Z,13.55
2019-04-20T08:14:30.657Z,12.70
2019-04-20T08:17:13.997Z,12.73
2019-04-20T08:19:36.251Z,11.55
2019-04-20T08:22:09.508Z,12.53
2019-04-20T08:24:42.810Z,12.45
2019-04-20T08:27:04.722Z,11.80
2019-04-20T08:29:48.338Z,13.03
2019-04-20T08:32:28.852Z,12.13
2019-04-20T08:37:38.027Z,11.97
2019-04-20T08:40:17.168Z,13.40
2019-04-20T08:42:52.905Z,12.78
2019-04-20T08:45:16.146Z,13.90
2019-04-20T08:47:56.386Z,12.95
2019-04-20T08:50:22.486Z,13.70
2019-04-20T08:55:26.654Z,15.43
2019-04-20T08:57:38.192Z,14.75
2019-04-20T09:00:11.136Z,16.30
2019-04-20T09:02:52.138Z,15.55
2019-04-20T09:05:30.386Z,14.63
2019-04-20T09:07:58.888Z,14.13
2019-04-20T09:10:45.083Z,14.33
2019-04-20T09:13:11.449Z,14.28
2019-04-20T09:15:34.176Z,15.30
2019-04-20T09:18:20.610Z,15.10
2019-04-20T09:20:52.868Z,14.55
2019-04-20T09:23:33.489Z,14.80
2019-04-20T09:26:10.484Z,15.05
2019-04-20T09:28:54.415Z,14.47
2019-04-20T09:31:26.991Z,15.90
2019-04-20T09:34:06.516Z,15.80
2019-04-20T09:36:38.616Z,16.52
2019-04-20T09:39:29.566Z,15.20
2019-04-20T09:42:01.467Z,14.20
2019-04-20T09:44:35.410Z,14.45
2019-04-20T09:47:03.299Z,13.80
2019-04-20T09:49:42.919Z,14.93
2019-04-20T09:54:55.166Z,14.23
2019-04-20T09:59:59.861Z,15.23
2019-04-20T10:02:18.800Z,16.27
2019-04-20T10:04:41.901Z,16.62
2019-04-20T10:07:16.603Z,16.45
2019-04-20T10:09:46.834Z,17.45
2019-04-20T10:12:15.808Z,17.35
2019-04-20T10:14:46.843Z,16.85
2019-04-20T10:17:18.065Z,15.75
2019-04-20T10:19:48.676Z,15.65
2019-04-20T10:22:18.709Z,15.25
2019-04-20T10:24:50.328Z,14.93
2019-04-20T10:27:20.936Z,16.20
2019-04-20T10:29:51.484Z,15.88
2019-04-20T10:32:25.422Z,15.38
2019-04-20T10:37:27.159Z,14.23
2019-04-20T10:39:56.756Z,14.20
2019-04-20T10:42:26.302Z,13.58
2019-04-20T10:44:58.556Z,14.28
2019-04-20T10:47:27.284Z,14.28
2019-04-20T10:49:56.911Z,14.13
2019-04-20T10:52:27.749Z,14.33
2019-04-20T10:54:58.555Z,13.85
2019-04-20T10:57:28.173Z,13.70
2019-04-20T10:59:59.651Z,15.28
2019-04-20T11:02:30.207Z,13.98
2019-04-20T11:05:00.383Z,13.85
2019-04-20T11:07:32.558Z,14.55
2019-04-20T11:10:13.422Z,11.95
2019-04-20T11:12:36.296Z,12.45
2019-04-20T11:15:08.371Z,12.63
2019-04-20T11:17:39.478Z,12.82
2019-04-20T11:20:10.275Z,11.70
2019-04-20T11:22:40.218Z,12.58
2019-04-20T11:25:16.594Z,12.65
2019-04-20T11:27:48.106Z,12.25
2019-04-20T11:30:20.379Z,13.32
2019-04-20T11:32:50.037Z,12.88
2019-04-20T11:35:26.899Z,11.55
2019-04-20T11:37:51.314Z,10.93
2019-04-20T11:40:21.729Z,11.05
2019-04-20T11:42:51.407Z,12.13
2019-04-20T11:45:24.761Z,13.03
2019-04-20T11:47:59.424Z,12.45
2019-04-20T11:50:29.559Z,12.73
2019-04-20T11:52:59.321Z,12.60
2019-04-20T11:55:28.859Z,12.43
2019-04-20T11:57:59.823Z,11.83
2019-04-20T12:00:47.190Z,13.53
2019-04-20T12:03:28.275Z,11.78
2019-04-20T12:05:57.006Z,12.10
2019-04-20T12:08:23.219Z,11.03
2019-04-20T12:11:01.682Z,10.80
2019-04-20T12:13:30.992Z,9.70
2019-04-20T12:16:03.532Z,11.05
2019-04-20T12:18:33.692Z,11.73
2019-04-20T12:21:05.012Z,10.05
2019-04-20T12:23:34.513Z,8.48
2019-04-20T12:26:04.765Z,6.50
2019-04-20T12:28:35.739Z,7.60
2019-04-20T12:31:11.845Z,7.78
2019-04-20T12:33:40.164Z,7.55
2019-04-20T12:36:12.379Z,7.65
2019-04-20T12:38:43.652Z,6.60
2019-04-20T12:41:14.489Z,7.15
2019-04-20T12:43:45.703Z,6.40
2019-04-20T12:46:18.361Z,7.50
2019-04-20T12:48:47.472Z,7.30
2019-04-20T12:51:25.199Z,8.20
2019-04-20T12:54:02.662Z,7.60
2019-04-20T12:56:34.865Z,6.87
2019-04-20T12:59:05.633Z,6.12
2019-04-20T13:01:35.508Z,6.40
2019-04-20T13:04:09.431Z,5.97
2019-04-20T13:06:46.897Z,6.25
2019-04-20T13:09:22.892Z,6.30
2019-04-20T13:12:12.258Z,6.22
2019-04-20T13:15:08.671Z,6.60
2019-04-20T13:17:38.203Z,6.30
2019-04-20T13:20:08.050Z,6.47
2019-04-20T13:22:37.862Z,5.95
2019-04-20T13:25:11.275Z,6.05
2019-04-20T13:27:47.319Z,6.15
2019-04-20T13:30:14.257Z,5.83
2019-04-20T13:32:45.761Z,5.42
2019-04-20T13:35:16.274Z,6.00
2019-04-20T13:37:46.907Z,5.78
2019-04-20T13:40:17.688Z,5.83
2019-04-20T13:42:49.843Z,6.00
2019-04-20T13:45:19.187Z,6.00
2019-04-20T13:47:50.836Z,5.75
2019-04-20T13:50:24.167Z,6.20
2019-04-20T13:52:53.612Z,5.97
2019-04-20T13:55:25.429Z,5.83
2019-04-20T13:58:07.713Z,5.80
2019-04-20T14:00:58.618Z,6.30
2019-04-20T14:03:32.434Z,6.05
2019-04-20T14:06:02.638Z,5.92
2019-04-20T14:08:33.623Z,6.60
2019-04-20T14:11:05.464Z,6.12
2019-04-20T14:13:42.831Z,6.50
2019-04-20T14:16:07.409Z,6.17
2019-04-20T14:18:37.461Z,6.20
2019-04-20T14:21:08.132Z,6.17
2019-04-20T14:23:39.000Z,6.78
2019-04-20T14:26:12.398Z,7.28
2019-04-20T14:28:42.963Z,5.92
2019-04-20T14:31:12.405Z,6.05
2019-04-20T14:33:41.935Z,6.80
2019-04-20T14:36:14.903Z,6.70
2019-04-20T14:38:49.859Z,6.55
2019-04-20T14:41:18.280Z,6.10
2019-04-20T14:43:51.242Z,6.30
2019-04-20T14:46:23.032Z,6.85
2019-04-20T14:48:52.601Z,6.95
2019-04-20T14:51:23.629Z,7.03
2019-04-20T14:53:56.006Z,7.12
2019-04-20T14:56:25.490Z,7.60
2019-04-20T14:59:07.528Z,7.17
2019-04-20T15:01:42.839Z,7.30
2019-04-20T15:04:30.284Z,6.60
2019-04-20T15:06:57.982Z,6.67
2019-04-20T15:09:28.795Z,7.35
2019-04-20T15:14:29.052Z,6.72
2019-04-20T15:17:00.601Z,6.25
2019-04-20T15:19:35.689Z,6.80
2019-04-20T15:22:07.536Z,6.55
2019-04-20T15:24:37.684Z,6.60
2019-04-20T15:27:07.310Z,7.15
2019-04-20T15:29:38.204Z,6.50
2019-04-20T15:32:13.665Z,6.85
2019-04-20T15:34:43.163Z,7.00
2019-04-20T15:37:14.043Z,6.87
2019-04-20T15:39:47.771Z,6.92
2019-04-20T15:42:17.326Z,7.10
2019-04-20T15:44:47.372Z,6.92
2019-04-20T15:47:17.393Z,6.58
2019-04-20T15:49:53.705Z,6.53
2019-04-20T15:52:29.433Z,6.80
2019-04-20T15:54:55.812Z,7.95
2019-04-20T15:57:29.118Z,7.20
2019-04-20T16:00:00.312Z,7.40
2019-04-20T16:02:33.625Z,6.70
2019-04-20T16:05:33.504Z,6.92
2019-04-20T16:08:09.178Z,6.78
2019-04-20T16:10:41.317Z,6.83
2019-04-20T16:13:20.202Z,7.00
2019-04-20T16:15:43.384Z,7.03
2019-04-20T16:18:14.841Z,6.58
2019-04-20T16:20:56.430Z,8.00
2019-04-20T16:23:18.642Z,8.20
2019-04-20T16:26:06.186Z,8.45
2019-04-20T16:28:37.535Z,7.58
2019-04-20T16:31:10.644Z,7.13
2019-04-20T16:33:42.258Z,7.15
2019-04-20T16:36:12.337Z,7.53
2019-04-20T16:38:45.608Z,7.70
2019-04-20T16:41:18.218Z,7.40
2019-04-20T16:43:49.847Z,7.05
2019-04-20T16:46:25.858Z,7.60
2019-04-20T16:48:56.911Z,7.60
2019-04-20T16:51:27.592Z,8.15
2019-04-20T16:53:59.541Z,7.70
2019-04-20T16:56:29.142Z,7.62
2019-04-20T16:59:06.099Z,6.53
2019-04-20T17:01:32.787Z,7.92
2019-04-20T17:04:09.767Z,7.05
2019-04-20T17:06:45.671Z,8.33
2019-04-20T17:09:15.753Z,7.40
2019-04-20T17:11:47.503Z,7.47
2019-04-20T17:14:17.452Z,6.95
2019-04-20T17:16:49.398Z,6.55
2019-04-20T17:19:27.840Z,6.57
2019-04-20T17:22:01.314Z,6.20
2019-04-20T17:24:33.531Z,6.78
2019-04-20T17:27:28.835Z,6.62
2019-04-20T17:30:20.059Z,6.25
2019-04-20T17:32:49.587Z,6.58
2019-04-20T17:35:34.663Z,6.65
2019-04-20T17:38:02.790Z,5.95
2019-04-20T17:40:51.183Z,6.05
2019-04-20T17:43:19.155Z,6.08
2019-04-20T17:45:48.279Z,6.20
2019-04-20T17:48:23.325Z,6.67
2019-04-20T17:51:04.619Z,6.80
2019-04-20T17:53:31.447Z,6.90
2019-04-20T17:55:53.462Z,5.95
2019-04-20T17:58:28.961Z,5.97
2019-04-20T18:01:24.006Z,6.92
2019-04-20T18:04:13.963Z,6.65
2019-04-20T18:06:34.798Z,7.72
2019-04-20T18:09:02.242Z,7.87
2019-04-20T18:11:24.375Z,7.83
2019-04-20T18:13:58.888Z,7.92
2019-04-20T18:16:46.526Z,7.58
2019-04-20T18:19:11.617Z,8.55
2019-04-20T18:21:41.110Z,10.18
2019-04-20T18:24:25.757Z,9.10
2019-04-20T18:27:03.209Z,8.45
2019-04-20T18:29:37.310Z,8.98
2019-04-20T18:31:49.378Z,8.83
2019-04-20T18:34:29.347Z,8.98
2019-04-20T18:37:08.627Z,9.13
2019-04-20T18:39:37.438Z,8.98
2019-04-20T18:42:15.594Z,8.10
2019-04-20T18:44:55.828Z,8.05
2019-04-20T18:47:30.230Z,7.35
2019-04-20T18:49:49.520Z,7.95
2019-04-20T18:54:47.489Z,7.00
2019-04-20T18:57:21.607Z,7.28
2019-04-20T18:59:50.473Z,7.45
2019-04-20T19:02:24.941Z,7.97
2019-04-20T19:04:58.647Z,7.37
2019-04-20T19:07:34.866Z,7.72
2019-04-20T19:10:11.175Z,7.72
2019-04-20T19:12:47.260Z,7.80
2019-04-20T19:15:46.922Z,7.80
2019-04-20T19:18:18.445Z,7.50
2019-04-20T19:20:46.252Z,10.95
2019-04-20T19:23:17.105Z,8.10
2019-04-20T19:25:47.818Z,7.62
2019-04-20T19:28:23.102Z,8.00
2019-04-20T19:31:01.716Z,7.08
2019-04-20T19:33:34.235Z,7.83
2019-04-20T19:36:09.219Z,7.00
2019-04-20T19:38:41.769Z,7.83
2019-04-20T19:41:20.287Z,7.10
2019-04-20T19:43:48.389Z,7.92
2019-04-20T19:48:52.614Z,7.53
2019-04-20T19:51:35.750Z,7.75
2019-04-20T19:54:06.479Z,9.28
2019-04-20T19:56:37.289Z,8.10
2019-04-20T19:59:02.763Z,10.28
2019-04-20T20:01:24.947Z,7.60
2019-04-20T20:04:02.448Z,8.88
2019-04-20T20:06:42.388Z,8.30
2019-04-20T20:09:05.849Z,9.75
2019-04-20T20:11:38.539Z,7.85
2019-04-20T20:14:09.072Z,8.78
2019-04-20T20:16:56.202Z,8.63
2019-04-20T20:19:16.399Z,8.38
2019-04-20T20:21:56.639Z,8.20
2019-04-20T20:24:14.384Z,8.05
2019-04-20T20:26:52.721Z,7.83
2019-04-20T20:29:27.656Z,9.03
2019-04-20T20:32:05.158Z,8.23
2019-04-20T20:34:28.703Z,8.78
2019-04-20T20:37:00.573Z,9.05
2019-04-20T20:39:31.677Z,8.95
2019-04-20T20:42:10.775Z,8.73
2019-04-20T20:44:41.123Z,9.33
2019-04-20T20:47:21.688Z,9.45
2019-04-20T20:50:03.579Z,9.33
2019-04-20T20:52:25.371Z,10.15
2019-04-20T20:54:49.747Z,9.33
2019-04-20T20:57:16.649Z,9.55
2019-04-20T20:59:51.245Z,10.30
2019-04-20T21:02:20.708Z,10.53
2019-04-20T21:04:45.803Z,9.95
2019-04-20T21:07:18.455Z,10.90
2019-04-20T21:09:50.676Z,10.88
2019-04-20T21:12:23.205Z,10.38
2019-04-20T21:14:51.482Z,10.75
2019-04-20T21:17:24.279Z,10.45
2019-04-20T21:20:07.404Z,9.93
2019-04-20T21:22:44.580Z,10.85
2019-04-20T21:25:03.431Z,11.13
2019-04-20T21:27:35.386Z,11.03
2019-04-20T21:30:16.805Z,11.73
2019-04-20T21:32:45.741Z,11.50
2019-04-20T21:35:15.507Z,11.68
2019-04-20T21:37:52.452Z,11.18
2019-04-20T21:40:24.916Z,11.38
2019-04-20T21:42:55.562Z,10.75
2019-04-20T21:45:27.163Z,12.17
2019-04-20T21:48:03.382Z,11.55
2019-04-20T21:50:53.288Z,11.50
2019-04-20T21:53:14.546Z,11.73
2019-04-20T21:55:36.196Z,11.68
2019-04-20T21:58:07.400Z,11.75
2019-04-20T22:01:06.671Z,11.12
2019-04-20T22:03:26.827Z,12.33
2019-04-20T22:06:04.784Z,12.05
2019-04-20T22:08:38.579Z,12.43
2019-04-20T22:11:08.261Z,12.20
2019-04-20T22:13:41.694Z,11.53
2019-04-20T22:16:12.220Z,11.70
2019-04-20T22:18:54.302Z,11.88
2019-04-20T22:21:25.477Z,11.95
2019-04-20T22:24:05.673Z,12.03
2019-04-20T22:26:31.065Z,11.55
2019-04-20T22:31:22.736Z,12.10
2019-04-20T22:33:56.346Z,12.20
2019-04-20T22:36:35.564Z,11.43
2019-04-20T22:39:18.579Z,12.35
2019-04-20T22:41:59.175Z,12.20
2019-04-20T22:44:24.931Z,13.03
2019-04-20T22:46:54.173Z,12.45
2019-04-20T22:49:42.022Z,12.58
2019-04-20T22:52:07.490Z,13.55
2019-04-20T22:54:42.313Z,12.98
2019-04-20T22:57:11.771Z,12.37
2019-04-20T22:59:44.673Z,13.08
2019-04-20T23:02:06.135Z,13.48
2019-04-20T23:04:37.096Z,12.35
2019-04-20T23:07:06.855Z,12.93
2019-04-20T23:09:43.800Z,12.63
2019-04-20T23:12:13.422Z,13.25
2019-04-20T23:14:38.575Z,13.20
2019-04-20T23:17:08.293Z,12.33
2019-04-20T23:19:47.430Z,12.80
2019-04-20T23:22:13.771Z,13.68
2019-04-20T23:24:44.956Z,13.32
2019-04-20T23:27:19.969Z,13.68
2019-04-20T23:29:46.954Z,13.15
2019-04-20T23:32:19.163Z,14.28
2019-04-20T23:35:00.477Z,13.57
2019-04-20T23:37:31.226Z,12.85
2019-04-20T23:42:39.227Z,13.30
2019-04-20T23:45:34.017Z,13.28
2019-04-20T23:48:16.230Z,14.95
2019-04-20T23:50:58.269Z,15.08
2019-04-20T23:53:32.939Z,15.03
2019-04-20T23:55:49.866Z,16.73
2019-04-20T23:58:21.171Z,15.88
